createdAt,value
2017-07-23T07:27:33.846Z,25.0
2017-07-23T07:28:35.217Z,25.0
2017-07-23T07:29:59.491Z,24.8
2017-07-23T07:30:19.992Z,24.8
2017-07-23T07:32:21.343Z,25.0
2017-07-23T07:34:45.507Z,25.1
2017-07-23T07:35:43.728Z,25.2
2017-07-23T07:40:45.032Z,25.3
2017-07-23T07:46:05.967Z,25.2
2017-07-23T07:51:07.282Z,25.2
2017-07-23T07:56:28.219Z,25.1
2017-07-23T08:01:29.531Z,25.3
2017-07-23T08:06:50.469Z,25.4
2017-07-23T08:11:51.785Z,25.5
2017-07-23T08:17:12.723Z,25.5
2017-07-23T08:22:14.037Z,25.7
2017-07-23T08:27:34.978Z,25.8
2017-07-23T08:32:36.299Z,25.8
2017-07-23T08:37:57.254Z,25.9
2017-07-23T08:42:58.571Z,26.0
2017-07-23T08:48:19.513Z,26.2
2017-07-23T08:53:20.829Z,26.3
2017-07-23T08:58:41.776Z,26.5
2017-07-23T09:03:43.099Z,26.3
2017-07-23T09:09:04.039Z,26.3
2017-07-23T09:14:05.358Z,26.3
2017-07-23T09:19:26.299Z,26.6
2017-07-23T09:24:27.619Z,26.7
2017-07-23T09:29:48.566Z,26.7
2017-07-23T09:34:49.883Z,26.4
2017-07-23T09:40:10.827Z,26.5
2017-07-23T09:45:12.143Z,26.3
2017-07-23T09:50:33.583Z,26.3
2017-07-23T09:55:34.905Z,26.5
2017-07-23T10:00:55.846Z,26.6
2017-07-23T10:05:57.165Z,26.9
2017-07-23T10:11:18.126Z,27.1
2017-07-23T10:16:19.448Z,26.8
2017-07-23T10:21:40.389Z,26.7
2017-07-23T10:26:41.709Z,26.7
2017-07-23T10:32:02.678Z,27.2
2017-07-23T10:37:03.997Z,27.3
2017-07-23T10:42:24.943Z,27.4
2017-07-23T10:47:26.387Z,27.0
2017-07-23T10:52:48.593Z,27.1
2017-07-23T10:57:51.259Z,27.2
2017-07-23T11:03:12.176Z,27.3
2017-07-23T11:08:14.261Z,27.5
2017-07-23T11:13:37.648Z,27.3
2017-07-23T11:18:39.069Z,27.3
2017-07-23T11:24:00.707Z,27.3
2017-07-23T11:29:02.038Z,27.1
2017-07-23T11:34:23.174Z,27.2
2017-07-23T11:39:24.655Z,27.3
2017-07-23T11:44:46.016Z,27.4
2017-07-23T11:49:47.341Z,27.5
2017-07-23T11:55:08.727Z,27.8
2017-07-23T12:00:10.069Z,27.9
2017-07-23T12:05:31.500Z,27.9
2017-07-23T12:10:32.827Z,28.1
2017-07-23T12:15:54.240Z,28.0
2017-07-23T12:20:55.573Z,28.1
2017-07-23T12:26:17.061Z,27.8
2017-07-23T12:31:18.366Z,28.3
2017-07-23T12:36:39.334Z,28.1
2017-07-23T12:41:40.657Z,27.8
2017-07-23T12:47:01.608Z,28.1
2017-07-23T12:52:02.932Z,28.5
2017-07-23T12:57:24.950Z,28.7
2017-07-23T13:02:26.278Z,28.5
2017-07-23T13:07:47.248Z,28.3
2017-07-23T13:12:48.574Z,28.3
2017-07-23T13:18:09.522Z,28.2
2017-07-23T13:23:10.848Z,28.2
2017-07-23T13:28:31.794Z,28.1
2017-07-23T13:33:33.119Z,28.1
2017-07-23T13:38:54.067Z,28.5
2017-07-23T13:43:55.403Z,28.4
2017-07-23T13:49:16.374Z,28.2
2017-07-23T13:54:17.699Z,28.1
2017-07-23T13:59:38.647Z,28.2
2017-07-23T14:04:39.976Z,28.2
2017-07-23T14:10:02.259Z,28.4
2017-07-23T14:15:03.583Z,28.2
2017-07-23T14:20:24.529Z,28.2
2017-07-23T14:25:25.854Z,28.5
2017-07-23T14:30:48.199Z,28.4
